createdAt,value
2018-05-10T00:00:08.188Z,961.04
2018-05-10T00:01:08.860Z,961.05
2018-05-10T00:02:09.582Z,961.14
2018-05-10T00:03:10.257Z,961.03
2018-05-10T00:04:10.927Z,961.05
2018-05-10T00:05:11.599Z,961.02
2018-05-10T00:06:12.274Z,961.01
2018-05-10T00:07:12.945Z,961.01
2018-05-10T00:08:13.621Z,961.01
2018-05-10T00:09:14.293Z,961.02
2018-05-10T00:10:14.966Z,961.01
2018-05-10T00:11:15.640Z,961.03
2018-05-10T00:12:16.310Z,960.97
2018-05-10T00:13:16.981Z,960.98
2018-05-10T00:14:17.652Z,960.94
2018-05-10T00:15:18.328Z,960.98
2018-05-10T00:16:19.009Z,960.99
2018-05-10T00:17:19.681Z,960.96
2018-05-10T00:18:20.351Z,960.90
2018-05-10T00:19:21.022Z,960.92
2018-05-10T00:20:21.694Z,960.90
2018-05-10T00:21:22.376Z,960.85
2018-05-10T00:22:23.054Z,960.83
2018-05-10T00:23:23.729Z,960.86
2018-05-10T00:24:24.468Z,960.83
2018-05-10T00:25:25.077Z,960.86
2018-05-10T00:26:25.749Z,960.81
2018-05-10T00:27:26.420Z,960.84
2018-05-10T00:28:27.091Z,960.85
2018-05-10T00:29:27.762Z,960.83
2018-05-10T00:30:28.438Z,960.85
2018-05-10T00:31:29.109Z,960.83
2018-05-10T00:32:29.779Z,960.84
2018-05-10T00:33:30.466Z,960.85
2018-05-10T00:34:31.355Z,960.87
2018-05-10T00:35:32.026Z,960.84
2018-05-10T00:36:32.700Z,960.82
2018-05-10T00:37:33.372Z,960.80
2018-05-10T00:38:34.041Z,960.81
2018-05-10T00:39:34.710Z,960.76
2018-05-10T00:40:35.389Z,960.78
2018-05-10T00:41:36.058Z,960.87
2018-05-10T00:42:36.735Z,960.84
2018-05-10T00:43:37.402Z,960.87
2018-05-10T00:44:38.072Z,960.85
2018-05-10T00:45:38.746Z,960.86
2018-05-10T00:46:39.426Z,960.88
2018-05-10T00:47:40.100Z,960.87
2018-05-10T00:48:40.768Z,960.86
2018-05-10T00:49:41.437Z,960.86
2018-05-10T00:50:42.116Z,960.86
2018-05-10T00:51:42.789Z,960.89
2018-05-10T00:52:43.459Z,960.86
2018-05-10T00:53:44.129Z,960.84
2018-05-10T00:54:44.801Z,960.85
2018-05-10T00:55:45.472Z,960.83
2018-05-10T00:56:46.147Z,960.84
2018-05-10T00:57:46.819Z,960.87
2018-05-10T00:58:47.489Z,960.87
2018-05-10T00:59:48.160Z,960.90
2018-05-10T01:00:48.832Z,960.91
2018-05-10T01:01:49.504Z,960.91
2018-05-10T01:02:50.177Z,960.92
2018-05-10T01:03:50.847Z,960.93
2018-05-10T01:04:51.607Z,960.93
2018-05-10T01:05:52.194Z,960.97
2018-05-10T01:06:52.868Z,960.93
2018-05-10T01:07:53.540Z,960.91
2018-05-10T01:08:54.215Z,960.95
2018-05-10T01:09:54.884Z,960.94
2018-05-10T01:10:55.553Z,960.95
2018-05-10T01:11:56.229Z,960.92
2018-05-10T01:12:56.896Z,960.93
2018-05-10T01:13:57.569Z,960.98
2018-05-10T01:14:58.245Z,960.96
2018-05-10T01:15:58.917Z,960.98
2018-05-10T01:16:59.589Z,960.99
2018-05-10T01:18:00.259Z,961.00
2018-05-10T01:19:00.930Z,960.98
2018-05-10T01:20:01.604Z,960.99
2018-05-10T01:21:02.273Z,960.97
2018-05-10T01:22:02.946Z,960.95
2018-05-10T01:23:03.619Z,961.00
2018-05-10T01:24:04.290Z,960.96
2018-05-10T01:25:04.960Z,961.01
2018-05-10T01:26:05.631Z,960.98
2018-05-10T01:27:06.304Z,961.02
2018-05-10T01:28:06.977Z,960.99
2018-05-10T01:29:07.647Z,961.00
2018-05-10T01:30:08.318Z,961.03
2018-05-10T01:31:08.992Z,960.99
2018-05-10T01:32:09.668Z,961.02
2018-05-10T01:33:10.341Z,961.05
2018-05-10T01:34:11.012Z,961.01
2018-05-10T01:35:11.685Z,961.02
2018-05-10T01:36:12.361Z,961.01
2018-05-10T01:37:13.035Z,961.00
2018-05-10T01:38:13.716Z,961.04
2018-05-10T01:39:14.397Z,961.05
2018-05-10T01:40:15.069Z,961.06
2018-05-10T01:41:15.737Z,961.06
2018-05-10T01:42:16.426Z,961.08
2018-05-10T01:43:17.100Z,961.09
2018-05-10T01:44:17.772Z,961.11
2018-05-10T01:45:18.444Z,961.09
2018-05-10T01:46:19.115Z,961.08
2018-05-10T01:47:19.785Z,961.15
2018-05-10T01:48:20.456Z,961.15
2018-05-10T01:49:21.125Z,961.08
2018-05-10T01:50:21.796Z,961.12
2018-05-10T01:51:22.470Z,961.09
2018-05-10T01:52:23.141Z,961.13
2018-05-10T01:53:23.815Z,961.08
2018-05-10T01:54:24.497Z,961.12
2018-05-10T01:55:25.170Z,961.12
2018-05-10T01:56:25.841Z,961.13
2018-05-10T01:57:26.511Z,961.16
2018-05-10T01:58:27.182Z,961.17
2018-05-10T01:59:27.854Z,961.12
2018-05-10T02:00:28.525Z,961.14
2018-05-10T02:01:29.199Z,961.15
2018-05-10T02:02:29.871Z,961.14
2018-05-10T02:03:30.543Z,961.15
2018-05-10T02:04:31.214Z,961.16
2018-05-10T02:05:31.887Z,961.17
2018-05-10T02:06:32.556Z,961.15
2018-05-10T02:07:33.230Z,961.18
2018-05-10T02:08:33.903Z,961.17
2018-05-10T02:09:34.577Z,961.18
2018-05-10T02:10:35.261Z,961.17
2018-05-10T02:11:35.924Z,961.20
2018-05-10T02:12:36.594Z,961.18
2018-05-10T02:13:37.265Z,961.19
2018-05-10T02:14:37.939Z,961.21
2018-05-10T02:15:38.606Z,961.16
2018-05-10T02:16:39.278Z,961.20
2018-05-10T02:17:39.948Z,961.19
2018-05-10T02:18:40.621Z,961.23
2018-05-10T02:19:41.292Z,961.22
2018-05-10T02:20:41.975Z,961.18
2018-05-10T02:21:42.645Z,961.21
2018-05-10T02:22:43.313Z,961.21
2018-05-10T02:23:44.058Z,961.19
2018-05-10T02:24:44.661Z,961.19
2018-05-10T02:25:45.340Z,961.20
2018-05-10T02:26:46.011Z,961.22
2018-05-10T02:27:46.682Z,961.20
2018-05-10T02:28:47.358Z,961.18
2018-05-10T02:29:48.113Z,961.18
2018-05-10T02:30:48.698Z,961.17
2018-05-10T02:31:49.368Z,961.18
2018-05-10T02:32:50.039Z,961.17
2018-05-10T02:33:50.709Z,961.16
2018-05-10T02:34:51.383Z,961.15
2018-05-10T02:35:52.052Z,961.19
2018-05-10T02:36:52.727Z,961.16
2018-05-10T02:37:53.401Z,961.21
2018-05-10T02:38:54.075Z,961.18
2018-05-10T02:39:54.753Z,961.19
2018-05-10T02:40:55.419Z,961.19
2018-05-10T02:41:56.096Z,961.21
2018-05-10T02:42:56.768Z,961.17
2018-05-10T02:43:57.442Z,961.18
2018-05-10T02:44:58.235Z,961.19
2018-05-10T02:45:58.792Z,961.17
2018-05-10T02:46:59.464Z,961.19
2018-05-10T02:48:00.140Z,961.15
2018-05-10T02:49:00.808Z,961.13
2018-05-10T02:50:01.490Z,961.14
2018-05-10T02:51:02.154Z,961.16
2018-05-10T02:52:02.825Z,961.09
2018-05-10T02:53:03.507Z,961.13
2018-05-10T02:54:04.180Z,961.11
2018-05-10T02:55:04.851Z,961.07
2018-05-10T02:56:05.522Z,961.09
2018-05-10T02:57:06.200Z,961.12
2018-05-10T02:58:06.870Z,961.10
2018-05-10T02:59:07.544Z,961.13
2018-05-10T03:00:08.209Z,961.12
2018-05-10T03:01:08.884Z,961.15
2018-05-10T03:02:09.556Z,961.11
2018-05-10T03:03:10.229Z,961.12
2018-05-10T03:04:10.902Z,961.13
2018-05-10T03:05:11.571Z,961.13
2018-05-10T03:06:12.252Z,961.16
2018-05-10T03:07:12.939Z,961.12
2018-05-10T03:08:13.612Z,961.13
2018-05-10T03:09:14.296Z,961.15
2018-05-10T03:10:14.970Z,961.13
2018-05-10T03:11:15.645Z,961.13
2018-05-10T03:12:16.315Z,961.10
2018-05-10T03:13:16.986Z,961.11
2018-05-10T03:14:17.663Z,961.12
2018-05-10T03:15:18.333Z,961.13
2018-05-10T03:16:19.010Z,961.10
2018-05-10T03:17:19.683Z,961.13
2018-05-10T03:18:20.357Z,961.15
2018-05-10T03:19:21.118Z,961.13
2018-05-10T03:20:21.709Z,961.13
2018-05-10T03:21:22.381Z,961.16
2018-05-10T03:22:23.054Z,961.16
2018-05-10T03:23:23.727Z,961.14
2018-05-10T03:24:24.396Z,961.17
2018-05-10T03:25:25.069Z,961.16
2018-05-10T03:26:25.741Z,961.20
2018-05-10T03:27:26.412Z,961.19
2018-05-10T03:28:27.085Z,961.22
2018-05-10T03:29:27.756Z,961.22
2018-05-10T03:30:28.438Z,961.23
2018-05-10T03:31:29.114Z,961.24
2018-05-10T03:32:29.786Z,961.22
2018-05-10T03:33:30.459Z,961.21
2018-05-10T03:34:31.133Z,961.26
2018-05-10T03:35:31.807Z,961.26
2018-05-10T03:36:32.486Z,961.27
2018-05-10T03:37:33.165Z,961.28
2018-05-10T03:38:33.831Z,961.27
2018-05-10T03:39:34.502Z,961.27
2018-05-10T03:40:35.247Z,961.28
2018-05-10T03:41:35.850Z,961.29
2018-05-10T03:42:36.523Z,961.29
2018-05-10T03:43:37.204Z,961.28
2018-05-10T03:44:37.869Z,961.30
2018-05-10T03:45:38.549Z,961.28
2018-05-10T03:46:39.216Z,961.32
2018-05-10T03:47:39.895Z,961.28
2018-05-10T03:48:40.566Z,961.34
2018-05-10T03:49:41.237Z,961.36
2018-05-10T03:50:41.909Z,961.36
2018-05-10T03:51:42.583Z,961.40
2018-05-10T03:52:43.254Z,961.38
2018-05-10T03:53:43.928Z,961.43
2018-05-10T03:54:44.602Z,961.40
2018-05-10T03:55:45.280Z,961.41
2018-05-10T03:56:46.033Z,961.43
2018-05-10T03:57:46.626Z,961.43
2018-05-10T03:58:47.304Z,961.44
2018-05-10T03:59:47.973Z,961.50
2018-05-10T04:00:48.648Z,961.52
2018-05-10T04:01:49.329Z,961.55
2018-05-10T04:02:50.005Z,961.52
2018-05-10T04:03:50.677Z,961.54
2018-05-10T04:04:51.350Z,961.56
2018-05-10T04:05:52.023Z,961.57
2018-05-10T04:06:52.694Z,961.54
2018-05-10T04:07:53.368Z,961.57
2018-05-10T04:08:54.039Z,961.57
2018-05-10T04:09:54.710Z,961.61
2018-05-10T04:10:55.387Z,961.54
2018-05-10T04:11:56.062Z,961.57
2018-05-10T04:12:56.744Z,961.58
2018-05-10T04:13:57.417Z,961.59
2018-05-10T04:14:58.090Z,961.60
2018-05-10T04:15:58.763Z,961.60
2018-05-10T04:16:59.440Z,961.60
2018-05-10T04:18:00.111Z,961.63
2018-05-10T04:19:00.786Z,961.66
2018-05-10T04:20:01.469Z,961.65
2018-05-10T04:21:02.141Z,961.67
2018-05-10T04:22:02.811Z,961.65
2018-05-10T04:23:03.485Z,961.70
2018-05-10T04:24:04.161Z,961.63
2018-05-10T04:25:04.839Z,961.69
2018-05-10T04:26:05.512Z,961.66
2018-05-10T04:27:06.188Z,961.65
2018-05-10T04:28:06.860Z,961.68
2018-05-10T04:29:07.529Z,961.67
2018-05-10T04:30:08.205Z,961.69
2018-05-10T04:31:08.883Z,961.66
2018-05-10T04:32:09.560Z,961.66
2018-05-10T04:33:10.235Z,961.65
2018-05-10T04:34:10.910Z,961.67
2018-05-10T04:35:11.590Z,961.65
2018-05-10T04:36:12.259Z,961.67
2018-05-10T04:37:12.934Z,961.61
2018-05-10T04:38:13.606Z,961.68
2018-05-10T04:39:14.283Z,961.66
2018-05-10T04:40:14.956Z,961.64
2018-05-10T04:41:15.628Z,961.64
2018-05-10T04:42:16.416Z,961.61
2018-05-10T04:43:16.991Z,961.66
2018-05-10T04:44:17.665Z,961.67
2018-05-10T04:45:18.341Z,961.67
2018-05-10T04:46:19.018Z,961.72
2018-05-10T04:47:19.702Z,961.69
2018-05-10T04:48:20.374Z,961.67
2018-05-10T04:49:21.045Z,961.70
2018-05-10T04:50:21.720Z,961.70
2018-05-10T04:51:22.395Z,961.66
2018-05-10T04:52:23.074Z,961.66
2018-05-10T04:53:23.750Z,961.64
2018-05-10T04:54:24.427Z,961.67
2018-05-10T04:55:25.098Z,961.66
2018-05-10T04:56:25.776Z,961.66
2018-05-10T04:57:26.448Z,961.65
2018-05-10T04:58:27.121Z,961.64
2018-05-10T04:59:27.795Z,961.68
2018-05-10T05:00:28.477Z,961.64
2018-05-10T05:01:29.155Z,961.69
2018-05-10T05:02:29.832Z,961.71
2018-05-10T05:03:30.515Z,961.71
2018-05-10T05:04:31.185Z,961.76
2018-05-10T05:05:31.863Z,961.71
2018-05-10T05:06:32.537Z,961.74
2018-05-10T05:07:33.219Z,961.76
2018-05-10T05:08:33.890Z,961.76
2018-05-10T05:09:34.561Z,961.77
2018-05-10T05:10:35.238Z,961.71
2018-05-10T05:11:35.911Z,961.74
2018-05-10T05:12:36.581Z,961.75
2018-05-10T05:13:37.260Z,961.75
2018-05-10T05:14:37.954Z,961.72
2018-05-10T05:15:38.625Z,961.72
2018-05-10T05:16:39.298Z,961.72
2018-05-10T05:17:39.976Z,961.73
2018-05-10T05:18:40.652Z,961.67
2018-05-10T05:19:41.331Z,961.69
2018-05-10T05:20:42.006Z,961.75
2018-05-10T05:21:42.684Z,961.70
2018-05-10T05:22:43.360Z,961.76
2018-05-10T05:23:44.035Z,961.77
2018-05-10T05:24:44.712Z,961.76
2018-05-10T05:25:45.384Z,961.76
2018-05-10T05:26:46.076Z,961.76
2018-05-10T05:27:46.740Z,961.75
2018-05-10T05:28:47.413Z,961.76
2018-05-10T05:29:48.089Z,961.74
2018-05-10T05:30:48.772Z,961.78
2018-05-10T05:31:49.448Z,961.79
2018-05-10T05:32:50.127Z,961.80
2018-05-10T05:33:50.802Z,961.76
2018-05-10T05:34:51.479Z,961.75
2018-05-10T05:35:52.154Z,961.74
2018-05-10T05:36:52.832Z,961.78
2018-05-10T05:37:53.504Z,961.82
2018-05-10T05:38:54.182Z,961.81
2018-05-10T05:39:54.858Z,961.79
2018-05-10T05:40:55.537Z,961.77
2018-05-10T05:41:56.212Z,961.76
2018-05-10T05:42:56.887Z,961.79
2018-05-10T05:43:57.561Z,961.79
2018-05-10T05:44:58.246Z,961.81
2018-05-10T05:45:58.917Z,961.82
2018-05-10T05:46:59.592Z,961.83
2018-05-10T05:48:00.267Z,961.78
2018-05-10T05:49:00.947Z,961.84
2018-05-10T05:50:01.623Z,961.81
2018-05-10T05:51:02.300Z,961.80
2018-05-10T05:52:03.020Z,961.82
2018-05-10T05:53:03.648Z,961.78
2018-05-10T05:54:04.325Z,961.80
2018-05-10T05:55:05.017Z,961.83
2018-05-10T05:56:05.679Z,961.81
2018-05-10T05:57:06.357Z,961.85
2018-05-10T05:58:07.031Z,961.85
2018-05-10T05:59:07.705Z,961.88
2018-05-10T06:00:08.380Z,961.88
2018-05-10T06:01:09.059Z,961.92
2018-05-10T06:02:09.738Z,961.92
2018-05-10T06:03:10.429Z,961.97
2018-05-10T06:04:11.120Z,961.98
2018-05-10T06:05:11.758Z,961.90
2018-05-10T06:06:12.475Z,961.94
2018-05-10T06:07:13.151Z,961.92
2018-05-10T06:08:13.827Z,961.94
2018-05-10T06:09:14.505Z,961.94
2018-05-10T06:10:15.180Z,961.96
2018-05-10T06:11:15.858Z,961.94
2018-05-10T06:12:16.533Z,961.95
2018-05-10T06:13:17.216Z,961.93
2018-05-10T06:14:17.894Z,961.98
2018-05-10T06:15:18.572Z,962.04
2018-05-10T06:16:19.251Z,962.02
2018-05-10T06:17:19.927Z,961.99
2018-05-10T06:18:20.606Z,962.05
2018-05-10T06:19:21.279Z,962.06
2018-05-10T06:20:21.963Z,962.09
2018-05-10T06:21:22.642Z,962.13
2018-05-10T06:22:23.322Z,962.12
2018-05-10T06:23:24.003Z,962.15
2018-05-10T06:24:24.677Z,962.15
2018-05-10T06:25:25.356Z,962.18
2018-05-10T06:26:26.030Z,962.18
2018-05-10T06:27:26.694Z,962.22
2018-05-10T06:28:27.386Z,962.21
2018-05-10T06:29:28.058Z,962.22
2018-05-10T06:30:28.739Z,962.23
2018-05-10T06:31:29.413Z,962.27
2018-05-10T06:32:30.096Z,962.27
2018-05-10T06:33:30.772Z,962.29
2018-05-10T06:34:31.448Z,962.30
2018-05-10T06:35:32.133Z,962.30
2018-05-10T06:36:32.809Z,962.31
2018-05-10T06:37:33.491Z,962.31
2018-05-10T06:38:34.166Z,962.28
2018-05-10T06:39:34.844Z,962.35
2018-05-10T06:40:35.520Z,962.30
2018-05-10T06:41:36.223Z,962.35
2018-05-10T06:42:36.878Z,962.32
2018-05-10T06:43:37.558Z,962.32
2018-05-10T06:44:38.234Z,962.37
2018-05-10T06:45:38.916Z,962.38
2018-05-10T06:46:39.593Z,962.37
2018-05-10T06:47:40.275Z,962.41
2018-05-10T06:48:40.956Z,962.43
2018-05-10T06:49:41.634Z,962.43
2018-05-10T06:50:42.314Z,962.40
2018-05-10T06:51:43.002Z,962.39
2018-05-10T06:52:43.684Z,962.40
2018-05-10T06:53:44.371Z,962.47
2018-05-10T06:54:45.107Z,962.50
2018-05-10T06:55:45.734Z,962.53
2018-05-10T06:56:46.422Z,962.52
2018-05-10T06:57:47.103Z,962.54
2018-05-10T06:58:47.782Z,962.52
2018-05-10T06:59:48.464Z,962.56
2018-05-10T07:00:49.140Z,962.59
2018-05-10T07:01:49.818Z,962.67
2018-05-10T07:02:50.503Z,962.65
2018-05-10T07:03:51.180Z,962.63
2018-05-10T07:04:51.854Z,962.68
2018-05-10T07:05:52.540Z,962.70
2018-05-10T07:06:53.219Z,962.68
2018-05-10T07:07:53.894Z,962.68
2018-05-10T07:08:54.577Z,962.69
2018-05-10T07:09:55.464Z,962.72
2018-05-10T07:10:55.934Z,962.72
2018-05-10T07:11:56.611Z,962.72
2018-05-10T07:12:57.289Z,962.78
2018-05-10T07:13:57.967Z,962.75
2018-05-10T07:14:58.644Z,962.78
2018-05-10T07:15:59.325Z,962.78
2018-05-10T07:17:00.011Z,962.80
2018-05-10T07:18:00.688Z,962.86
2018-05-10T07:19:01.367Z,962.88
2018-05-10T07:20:02.049Z,962.79
2018-05-10T07:21:02.725Z,962.84
2018-05-10T07:22:03.407Z,962.77
2018-05-10T07:23:04.082Z,962.84
2018-05-10T07:24:04.759Z,962.85
2018-05-10T07:25:05.534Z,962.85
2018-05-10T07:26:06.117Z,962.86
2018-05-10T07:27:06.794Z,962.86
2018-05-10T07:28:07.474Z,962.83
2018-05-10T07:29:08.156Z,962.92
2018-05-10T07:30:08.831Z,962.89
2018-05-10T07:31:09.513Z,962.92
2018-05-10T07:32:10.191Z,962.88
2018-05-10T07:33:10.870Z,962.90
2018-05-10T07:34:11.547Z,962.88
2018-05-10T07:35:12.226Z,962.92
2018-05-10T07:36:12.912Z,962.87
2018-05-10T07:37:13.588Z,962.87
2018-05-10T07:38:14.268Z,962.88
2018-05-10T07:39:14.953Z,962.87
2018-05-10T07:40:15.625Z,962.89
2018-05-10T07:41:16.321Z,962.93
2018-05-10T07:42:17.149Z,962.93
2018-05-10T07:43:17.825Z,962.99
2018-05-10T07:44:18.515Z,962.96
2018-05-10T07:45:19.200Z,962.90
2018-05-10T07:46:19.882Z,962.94
2018-05-10T07:47:20.653Z,962.96
2018-05-10T07:48:21.250Z,963.01
2018-05-10T07:49:21.928Z,962.97
2018-05-10T07:50:22.611Z,962.98
2018-05-10T07:51:23.291Z,963.04
2018-05-10T07:52:23.965Z,963.05
2018-05-10T07:53:24.653Z,963.04
2018-05-10T07:54:25.333Z,963.13
2018-05-10T07:55:26.019Z,963.08
2018-05-10T07:56:26.701Z,963.14
2018-05-10T07:57:27.378Z,963.16
2018-05-10T07:58:28.059Z,963.18
2018-05-10T07:59:28.744Z,963.21
2018-05-10T08:00:29.415Z,963.18
2018-05-10T08:01:30.101Z,963.22
2018-05-10T08:02:30.792Z,963.20
2018-05-10T08:03:31.474Z,963.22
2018-05-10T08:04:32.150Z,963.25
2018-05-10T08:05:32.828Z,963.34
2018-05-10T08:06:33.506Z,963.29
2018-05-10T08:07:34.187Z,963.28
2018-05-10T08:08:34.866Z,963.30
2018-05-10T08:09:35.545Z,963.28
2018-05-10T08:10:36.231Z,963.23
2018-05-10T08:11:36.907Z,963.24
2018-05-10T08:12:37.601Z,963.24
2018-05-10T08:13:38.283Z,963.19
2018-05-10T08:14:38.968Z,963.18
2018-05-10T08:15:39.650Z,963.22
2018-05-10T08:16:40.329Z,963.30
2018-05-10T08:17:41.012Z,963.16
2018-05-10T08:18:41.692Z,963.26
2018-05-10T08:19:42.388Z,963.26
2018-05-10T08:20:43.082Z,963.24
2018-05-10T08:21:43.762Z,963.23
2018-05-10T08:22:44.441Z,963.23
2018-05-10T08:23:45.130Z,963.26
2018-05-10T08:24:45.807Z,963.28
2018-05-10T08:25:46.493Z,963.35
2018-05-10T08:26:47.177Z,963.33
2018-05-10T08:27:47.859Z,963.35
2018-05-10T08:28:48.534Z,963.32
2018-05-10T08:29:49.224Z,963.30
2018-05-10T08:30:49.900Z,963.30
2018-05-10T08:31:50.591Z,963.28
2018-05-10T08:32:51.271Z,963.33
2018-05-10T08:33:51.964Z,963.30
2018-05-10T08:34:52.645Z,963.30
2018-05-10T08:35:53.331Z,963.36
2018-05-10T08:36:54.011Z,963.41
2018-05-10T08:37:54.689Z,963.44
2018-05-10T08:38:55.369Z,963.45
2018-05-10T08:39:56.051Z,963.47
2018-05-10T08:40:56.732Z,963.47
2018-05-10T08:41:57.419Z,963.45
2018-05-10T08:42:58.110Z,963.54
2018-05-10T08:43:58.795Z,963.52
2018-05-10T08:44:59.565Z,963.50
2018-05-10T08:46:00.159Z,963.47
2018-05-10T08:47:00.838Z,963.51
2018-05-10T08:48:01.523Z,963.56
2018-05-10T08:49:02.213Z,963.50
2018-05-10T08:50:02.898Z,963.49
2018-05-10T08:51:03.578Z,963.56
2018-05-10T08:52:04.265Z,963.54
2018-05-10T08:53:04.947Z,963.46
2018-05-10T08:54:05.635Z,963.48
2018-05-10T08:55:06.309Z,963.48
2018-05-10T08:56:06.997Z,963.55
2018-05-10T08:57:07.591Z,963.58
2018-05-10T08:58:08.376Z,963.66
2018-05-10T08:59:09.054Z,963.53
2018-05-10T09:00:09.731Z,963.56
2018-05-10T09:01:10.413Z,963.55
2018-05-10T09:02:11.101Z,963.58
2018-05-10T09:03:11.788Z,963.60
2018-05-10T09:04:12.474Z,963.67
2018-05-10T09:05:13.161Z,963.58
2018-05-10T09:06:13.845Z,963.62
2018-05-10T09:07:14.536Z,963.61
2018-05-10T09:08:15.216Z,963.67
2018-05-10T09:09:15.902Z,963.67
2018-05-10T09:10:16.586Z,963.64
2018-05-10T09:11:17.267Z,963.77
2018-05-10T09:12:17.947Z,963.73
2018-05-10T09:13:18.629Z,963.67
2018-05-10T09:14:19.310Z,963.84
2018-05-10T09:15:19.990Z,963.65
2018-05-10T09:16:20.676Z,963.69
2018-05-10T09:17:21.355Z,963.77
2018-05-10T09:18:22.037Z,963.72
2018-05-10T09:19:22.722Z,963.67
2018-05-10T09:20:23.489Z,963.75
2018-05-10T09:21:24.085Z,963.75
2018-05-10T09:22:24.766Z,963.66
2018-05-10T09:23:25.446Z,963.74
2018-05-10T09:24:26.126Z,963.72
2018-05-10T09:25:26.804Z,963.70
2018-05-10T09:26:27.487Z,963.73
2018-05-10T09:27:28.173Z,963.78
2018-05-10T09:28:28.855Z,963.71
2018-05-10T09:29:29.540Z,963.71
2018-05-10T09:30:30.231Z,963.88
2018-05-10T09:31:30.967Z,963.70
2018-05-10T09:32:31.594Z,963.71
2018-05-10T09:33:32.278Z,963.81
2018-05-10T09:34:32.957Z,963.87
2018-05-10T09:35:33.641Z,963.88
2018-05-10T09:36:34.318Z,963.76
2018-05-10T09:37:35.000Z,963.70
2018-05-10T09:38:35.681Z,963.73
2018-05-10T09:39:36.430Z,963.77
2018-05-10T09:40:37.042Z,963.84
2018-05-10T09:41:37.723Z,963.85
2018-05-10T09:42:38.408Z,963.73
2018-05-10T09:43:39.089Z,963.83
2018-05-10T09:44:39.771Z,963.93
2018-05-10T09:45:40.462Z,963.77
2018-05-10T09:46:41.149Z,963.78
2018-05-10T09:47:41.826Z,963.83
2018-05-10T09:48:42.523Z,963.90
2018-05-10T09:49:43.207Z,963.78
2018-05-10T09:50:43.889Z,963.83
2018-05-10T09:51:44.568Z,963.80
2018-05-10T09:52:45.273Z,963.86
2018-05-10T09:53:45.946Z,963.91
2018-05-10T09:54:46.679Z,963.92
2018-05-10T09:55:47.368Z,963.86
2018-05-10T09:56:48.047Z,963.88
2018-05-10T09:57:48.729Z,963.98
2018-05-10T09:58:49.413Z,963.92
2018-05-10T09:59:50.146Z,963.98
2018-05-10T10:00:50.780Z,963.88
2018-05-10T10:01:51.464Z,964.07
2018-05-10T10:02:52.151Z,964.06
2018-05-10T10:03:52.828Z,963.88
2018-05-10T10:04:53.511Z,964.14
2018-05-10T10:05:54.194Z,963.99
2018-05-10T10:06:54.874Z,964.06
2018-05-10T10:07:55.551Z,963.92
2018-05-10T10:08:56.235Z,963.94
2018-05-10T10:09:56.920Z,963.94
2018-05-10T10:10:57.607Z,963.87
2018-05-10T10:11:58.295Z,963.90
2018-05-10T10:12:58.972Z,964.20
2018-05-10T10:13:59.655Z,963.94
2018-05-10T10:15:00.337Z,963.95
2018-05-10T10:16:01.017Z,963.93
2018-05-10T10:17:01.698Z,963.97
2018-05-10T10:18:02.380Z,963.82
2018-05-10T10:19:03.062Z,963.95
2018-05-10T10:20:03.748Z,963.96
2018-05-10T10:21:04.441Z,964.07
2018-05-10T10:22:05.122Z,963.99
2018-05-10T10:23:05.804Z,963.96
2018-05-10T10:24:06.482Z,964.01
2018-05-10T10:25:07.233Z,964.29
2018-05-10T10:26:07.858Z,964.08
2018-05-10T10:27:08.537Z,964.05
2018-05-10T10:28:09.225Z,964.05
2018-05-10T10:29:09.903Z,964.31
2018-05-10T10:30:10.586Z,964.19
2018-05-10T10:31:11.266Z,964.23
2018-05-10T10:32:11.955Z,964.33
2018-05-10T10:33:12.646Z,964.33
2018-05-10T10:34:13.329Z,964.39
2018-05-10T10:35:14.023Z,964.38
2018-05-10T10:36:14.706Z,964.41
2018-05-10T10:37:15.388Z,964.37
2018-05-10T10:38:16.100Z,964.38
2018-05-10T10:39:16.756Z,964.37
2018-05-10T10:40:17.448Z,964.43
2018-05-10T10:41:18.128Z,964.43
2018-05-10T10:42:18.816Z,964.46
2018-05-10T10:43:19.503Z,964.52
2018-05-10T10:44:20.180Z,964.48
2018-05-10T10:45:20.906Z,964.45
2018-05-10T10:46:21.540Z,964.48
2018-05-10T10:47:22.219Z,964.62
2018-05-10T10:48:22.899Z,964.50
2018-05-10T10:49:23.585Z,964.54
2018-05-10T10:50:24.266Z,964.58
2018-05-10T10:51:24.946Z,964.64
2018-05-10T10:52:25.642Z,964.64
2018-05-10T10:53:26.323Z,964.64
2018-05-10T10:54:27.003Z,964.70
2018-05-10T10:55:27.686Z,964.78
2018-05-10T10:56:28.366Z,964.75
2018-05-10T10:57:29.050Z,964.75
2018-05-10T10:58:29.732Z,964.89
2018-05-10T10:59:30.413Z,964.80
2018-05-10T11:00:31.095Z,964.77
2018-05-10T11:01:31.800Z,964.85
2018-05-10T11:02:32.494Z,964.94
2018-05-10T11:03:33.178Z,964.93
2018-05-10T11:04:33.861Z,964.91
2018-05-10T11:05:34.551Z,964.93
2018-05-10T11:06:35.238Z,964.90
2018-05-10T11:07:35.928Z,964.89
2018-05-10T11:08:36.609Z,965.00
2018-05-10T11:09:37.291Z,964.94
2018-05-10T11:10:37.971Z,964.98
2018-05-10T11:11:38.655Z,965.10
2018-05-10T11:12:39.338Z,965.01
2018-05-10T11:13:40.020Z,965.03
2018-05-10T11:14:40.699Z,965.00
2018-05-10T11:15:41.382Z,965.06
2018-05-10T11:16:42.064Z,965.03
2018-05-10T11:17:42.748Z,965.07
2018-05-10T11:18:43.433Z,965.18
2018-05-10T11:19:44.115Z,965.03
2018-05-10T11:20:44.879Z,965.02
2018-05-10T11:21:45.475Z,965.07
2018-05-10T11:22:46.150Z,965.02
2018-05-10T11:23:46.838Z,965.05
2018-05-10T11:24:47.574Z,965.06
2018-05-10T11:25:48.199Z,965.06
2018-05-10T11:26:48.881Z,965.05
2018-05-10T11:27:49.571Z,965.06
2018-05-10T11:28:50.251Z,965.03
2018-05-10T11:29:50.932Z,965.05
2018-05-10T11:30:51.612Z,965.06
2018-05-10T11:31:52.292Z,965.08
2018-05-10T11:32:53.011Z,965.03
2018-05-10T11:33:53.677Z,965.09
2018-05-10T11:34:54.358Z,965.10
2018-05-10T11:35:55.043Z,965.09
2018-05-10T11:36:55.724Z,965.13
2018-05-10T11:37:56.404Z,965.15
2018-05-10T11:38:57.084Z,965.15
2018-05-10T11:39:57.763Z,965.16
2018-05-10T11:40:58.544Z,965.17
2018-05-10T11:41:59.131Z,965.22
2018-05-10T11:42:59.819Z,965.25
2018-05-10T11:44:00.509Z,965.23
2018-05-10T11:45:01.269Z,965.28
2018-05-10T11:46:01.897Z,965.30
2018-05-10T11:47:02.575Z,965.32
2018-05-10T11:48:03.260Z,965.32
2018-05-10T11:49:03.951Z,965.28
2018-05-10T11:50:04.629Z,965.32
2018-05-10T11:51:05.316Z,965.32
2018-05-10T11:52:06.003Z,965.30
2018-05-10T11:53:06.690Z,965.29
2018-05-10T11:54:07.375Z,965.29
2018-05-10T11:55:08.119Z,965.30
2018-05-10T11:56:08.834Z,965.35
2018-05-10T11:57:09.521Z,965.36
2018-05-10T11:58:10.200Z,965.35
2018-05-10T11:59:10.884Z,965.41
2018-05-10T12:00:11.566Z,965.47
2018-05-10T12:01:12.245Z,965.45
2018-05-10T12:02:12.939Z,965.45
2018-05-10T12:03:13.621Z,965.45
2018-05-10T12:04:14.297Z,965.48
2018-05-10T12:05:15.033Z,965.49
2018-05-10T12:06:15.712Z,965.47
2018-05-10T12:07:16.395Z,965.45
2018-05-10T12:08:17.068Z,965.49
2018-05-10T12:09:17.765Z,965.43
2018-05-10T12:10:18.449Z,965.42
2018-05-10T12:11:19.131Z,965.44
2018-05-10T12:12:19.859Z,965.48
2018-05-10T12:13:20.542Z,965.47
2018-05-10T12:14:21.231Z,965.48
2018-05-10T12:15:21.926Z,965.50
2018-05-10T12:16:22.607Z,965.49
2018-05-10T12:17:23.291Z,965.54
2018-05-10T12:18:23.970Z,965.55
2018-05-10T12:19:24.652Z,965.51
2018-05-10T12:20:25.384Z,965.56
2018-05-10T12:21:26.017Z,965.62
2018-05-10T12:22:26.698Z,965.59
2018-05-10T12:23:27.381Z,965.60
2018-05-10T12:24:28.080Z,965.62
2018-05-10T12:25:28.845Z,965.61
2018-05-10T12:26:29.445Z,965.59
2018-05-10T12:27:30.133Z,965.58
2018-05-10T12:28:30.812Z,965.58
2018-05-10T12:29:31.489Z,965.60
2018-05-10T12:30:32.259Z,965.63
2018-05-10T12:31:32.857Z,965.64
2018-05-10T12:32:33.538Z,965.66
2018-05-10T12:33:34.221Z,965.68
2018-05-10T12:34:34.901Z,965.67
2018-05-10T12:35:35.583Z,965.72
2018-05-10T12:36:36.265Z,965.71